Bayberry Point, New York
Current Conditions -  °F | °C
As of 9:56 PM on Thursday 18 Dec 2014 (Local Time) from KISP Reporting Station
Few Clouds Few Clouds  
Wind Chill: 29°   Ceiling: Unl
Heat Index: 35°   Visibility: 10mi
Dew Point: 26°   Wind: 8mph
Humidity: 70%   Direction: 290°WNW
Pressure: 29.94"   Gusts: NA
Location:  40.7426°N, 73.2171°W
Report Text: KISP 190256Z 29007KT 10SM FEW260 02/M03 A2994 RMK AO2 SLP139 T00171033 53008
Loading
Personal Weather Stations






























Interactive Weather Map New forecast layout! Learn more

10-Day Weather Forecast

Advertisements
Track Severe Weather on mobile